createdAt,value
2022-09-28T00:01:41.137Z,99664.63
2022-09-28T00:04:09.199Z,99660.75
2022-09-28T00:06:35.743Z,99670.63
2022-09-28T00:09:02.369Z,99670.84
2022-09-28T00:11:29.231Z,99659.78
2022-09-28T00:13:57.793Z,99661.69
2022-09-28T00:16:26.046Z,99662.44
2022-09-28T00:18:53.249Z,99654.50
2022-09-28T00:21:22.323Z,99661.22
2022-09-28T00:24:10.219Z,99654.97
2022-09-28T00:26:37.234Z,99662.53
2022-09-28T00:29:03.823Z,99667.97
2022-09-28T00:31:32.699Z,99662.66
2022-09-28T00:34:00.513Z,99655.19
2022-09-28T00:36:29.750Z,99652.19
2022-09-28T00:38:59.466Z,99645.41
2022-09-28T00:41:26.898Z,99649.59
2022-09-28T00:43:54.758Z,99645.28
2022-09-28T00:46:26.603Z,99652.25
2022-09-28T00:48:56.494Z,99640.09
2022-09-28T00:51:24.311Z,99634.66
2022-09-28T00:53:53.294Z,99633.69
2022-09-28T00:56:21.702Z,99636.59
2022-09-28T00:58:50.045Z,99640.19
2022-09-28T01:01:16.766Z,99635.69
2022-09-28T01:03:48.989Z,99630.09
2022-09-28T01:06:18.050Z,99629.13
2022-09-28T01:08:45.979Z,99625.03
2022-09-28T01:11:15.129Z,99621.44
2022-09-28T01:13:42.131Z,99627.16
2022-09-28T01:16:13.270Z,99622.25
2022-09-28T01:18:44.076Z,99621.06
2022-09-28T01:21:12.668Z,99628.38
2022-09-28T01:23:44.439Z,99621.78
2022-09-28T01:26:31.979Z,99622.25
2022-09-28T01:29:04.680Z,99616.59
2022-09-28T01:31:33.024Z,99619.75
2022-09-28T01:34:02.940Z,99620.13
2022-09-28T01:36:34.826Z,99620.25
2022-09-28T01:39:04.015Z,99626.22
2022-09-28T01:41:32.024Z,99635.28
2022-09-28T01:44:06.019Z,99631.88
2022-09-28T01:46:34.693Z,99631.09
2022-09-28T01:49:05.215Z,99633.13
2022-09-28T01:51:36.002Z,99626.72
2022-09-28T01:54:09.484Z,99626.50
2022-09-28T01:56:39.074Z,99627.22
2022-09-28T01:59:10.180Z,99624.66
2022-09-28T02:01:39.393Z,99615.78
2022-09-28T02:04:08.787Z,99614.94
2022-09-28T02:06:38.867Z,99617.72
2022-09-28T02:09:09.669Z,99621.22
2022-09-28T02:11:43.339Z,99619.59
2022-09-28T02:14:12.554Z,99616.25
2022-09-28T02:16:41.266Z,99618.66
2022-09-28T02:19:10.216Z,99622.38
2022-09-28T02:21:40.985Z,99624.50
2022-09-28T02:24:11.727Z,99626.41
2022-09-28T02:26:42.716Z,99617.16
2022-09-28T02:29:11.328Z,99621.59
2022-09-28T02:31:38.245Z,99619.25
2022-09-28T02:34:05.497Z,99628.97
2022-09-28T02:36:32.564Z,99625.38
2022-09-28T02:39:01.274Z,99628.03
2022-09-28T02:41:38.882Z,99631.53
2022-09-28T02:44:11.778Z,99634.25
2022-09-28T02:46:47.216Z,99636.41
2022-09-28T02:49:25.854Z,99640.97
2022-09-28T02:52:01.203Z,99643.69
2022-09-28T02:54:44.080Z,99653.75
2022-09-28T02:57:14.195Z,99652.91
2022-09-28T02:59:47.890Z,99658.41
2022-09-28T03:02:21.387Z,99654.25
2022-09-28T03:04:54.667Z,99662.19
2022-09-28T03:07:29.307Z,99655.97
2022-09-28T03:10:00.184Z,99656.41
2022-09-28T03:12:29.364Z,99657.22
2022-09-28T03:15:06.507Z,99659.25
2022-09-28T03:17:34.715Z,99655.97
2022-09-28T03:20:01.645Z,99666.00
2022-09-28T03:22:28.432Z,99657.88
2022-09-28T03:24:55.079Z,99665.38
2022-09-28T03:27:21.941Z,99656.50
2022-09-28T03:29:48.885Z,99651.97
2022-09-28T03:32:15.711Z,99655.13
2022-09-28T03:34:43.935Z,99655.63
2022-09-28T03:37:10.763Z,99650.78
2022-09-28T03:39:37.491Z,99653.53
2022-09-28T03:42:04.262Z,99652.38
2022-09-28T03:44:34.224Z,99654.16
2022-09-28T03:47:01.108Z,99648.97
2022-09-28T03:49:27.670Z,99652.56
2022-09-28T03:51:55.709Z,99651.22
2022-09-28T03:54:24.163Z,99655.00
2022-09-28T03:56:52.146Z,99655.00
2022-09-28T03:59:19.177Z,99647.00
2022-09-28T04:01:45.981Z,99657.25
2022-09-28T04:04:14.014Z,99650.94
2022-09-28T04:06:41.181Z,99660.03
2022-09-28T04:09:09.253Z,99662.31
2022-09-28T04:11:53.197Z,99666.88
2022-09-28T04:14:22.647Z,99660.16
2022-09-28T04:16:49.441Z,99652.16
2022-09-28T04:19:16.218Z,99657.66
2022-09-28T04:22:21.364Z,99651.22
2022-09-28T04:24:49.364Z,99655.31
2022-09-28T04:27:34.707Z,99651.63
2022-09-28T04:30:02.385Z,99656.81
2022-09-28T04:32:30.624Z,99653.34
2022-09-28T04:34:57.217Z,99659.38
2022-09-28T04:37:23.867Z,99656.19
2022-09-28T04:39:51.867Z,99662.84
2022-09-28T04:42:19.444Z,99669.09
2022-09-28T04:44:48.605Z,99666.44
2022-09-28T04:47:15.502Z,99676.38
2022-09-28T04:50:14.468Z,99663.16
2022-09-28T04:53:01.868Z,99669.59
2022-09-28T04:55:32.523Z,99666.84
2022-09-28T04:58:02.763Z,99668.44
2022-09-28T05:00:29.904Z,99669.19
2022-09-28T05:03:06.750Z,99672.53
2022-09-28T05:05:52.110Z,99677.72
2022-09-28T05:08:37.526Z,99668.22
2022-09-28T05:11:07.588Z,99670.97
2022-09-28T05:13:40.737Z,99673.41
2022-09-28T05:16:08.293Z,99682.72
2022-09-28T05:18:48.652Z,99682.69
2022-09-28T05:21:15.636Z,99671.72
2022-09-28T05:23:46.355Z,99678.06
2022-09-28T05:26:14.915Z,99681.19
2022-09-28T05:28:41.588Z,99685.22
2022-09-28T05:31:37.706Z,99676.16
2022-09-28T05:34:18.832Z,99671.72
2022-09-28T05:36:46.242Z,99672.44
2022-09-28T05:39:13.105Z,99661.38
2022-09-28T05:41:41.343Z,99666.44
2022-09-28T05:44:08.039Z,99655.03
2022-09-28T05:46:36.023Z,99660.53
2022-09-28T05:49:02.887Z,99658.09
2022-09-28T05:51:29.752Z,99660.84
2022-09-28T05:53:58.827Z,99668.16
2022-09-28T05:56:29.915Z,99667.91
2022-09-28T05:58:58.841Z,99665.75
2022-09-28T06:01:28.659Z,99661.34
2022-09-28T06:03:57.868Z,99662.94
2022-09-28T06:06:24.480Z,99664.31
2022-09-28T06:08:51.346Z,99669.72
2022-09-28T06:11:36.739Z,99664.75
2022-09-28T06:14:27.627Z,99673.50
2022-09-28T06:16:54.440Z,99680.25
2022-09-28T06:19:22.158Z,99677.94
2022-09-28T06:22:07.426Z,99681.81
2022-09-28T06:24:42.040Z,99688.81
2022-09-28T06:27:08.710Z,99683.94
2022-09-28T06:29:36.799Z,99687.00
2022-09-28T06:32:03.488Z,99698.28
2022-09-28T06:34:30.311Z,99698.09
2022-09-28T06:36:57.189Z,99688.41
2022-09-28T06:39:23.809Z,99700.00
2022-09-28T06:41:50.693Z,99702.75
2022-09-28T06:44:20.500Z,99703.00
2022-09-28T06:46:52.033Z,99702.72
2022-09-28T06:49:37.759Z,99686.75
2022-09-28T06:52:27.369Z,99695.41
2022-09-28T06:55:15.082Z,99686.84
2022-09-28T06:57:43.813Z,99673.03
2022-09-28T07:00:12.460Z,99706.28
2022-09-28T07:02:40.910Z,99704.34
2022-09-28T07:05:15.823Z,99703.28
2022-09-28T07:08:18.428Z,99703.19
2022-09-28T07:11:06.439Z,99707.66
2022-09-28T07:13:51.339Z,99712.59
2022-09-28T07:16:26.432Z,99713.84
2022-09-28T07:18:56.525Z,99711.56
2022-09-28T07:21:29.729Z,99716.06
2022-09-28T07:24:00.572Z,99716.53
2022-09-28T07:26:37.304Z,99691.16
2022-09-28T07:29:24.260Z,99714.78
2022-09-28T07:31:59.986Z,99725.88
2022-09-28T07:34:28.173Z,99726.97
2022-09-28T07:37:04.085Z,99727.09
2022-09-28T07:39:30.950Z,99725.53
2022-09-28T07:42:02.643Z,99719.53
2022-09-28T07:44:31.743Z,99725.88
2022-09-28T07:46:59.762Z,99726.13
2022-09-28T07:49:40.540Z,99730.63
2022-09-28T07:52:39.026Z,99730.00
2022-09-28T07:55:20.023Z,99733.72
2022-09-28T07:58:08.794Z,99731.53
2022-09-28T08:00:48.191Z,99743.34
2022-09-28T08:03:16.150Z,99749.34
2022-09-28T08:05:45.831Z,99742.84
2022-09-28T08:08:13.430Z,99752.09
2022-09-28T08:10:46.561Z,99753.03
2022-09-28T08:13:45.631Z,99741.31
2022-09-28T08:16:23.045Z,99749.41
2022-09-28T08:19:09.948Z,99752.50
2022-09-28T08:21:47.574Z,99756.47
2022-09-28T08:24:16.113Z,99750.91
2022-09-28T08:26:44.905Z,99754.63
2022-09-28T08:29:15.509Z,99743.88
2022-09-28T08:31:51.062Z,99758.75
2022-09-28T08:34:36.729Z,99758.66
2022-09-28T08:37:16.801Z,99752.84
2022-09-28T08:40:25.406Z,99764.16
2022-09-28T08:43:23.043Z,99766.41
2022-09-28T08:46:12.739Z,99774.44
2022-09-28T08:52:09.621Z,99776.56
2022-09-28T08:55:11.983Z,99769.31
2022-09-28T08:57:48.941Z,99781.81
2022-09-28T09:00:21.449Z,99775.38
2022-09-28T09:02:49.491Z,99781.28
2022-09-28T09:05:24.147Z,99784.41
2022-09-28T09:08:13.468Z,99778.16
2022-09-28T09:10:49.921Z,99787.00
2022-09-28T09:13:43.150Z,99785.09
2022-09-28T09:16:21.568Z,99787.88
2022-09-28T09:19:16.482Z,99793.22
2022-09-28T09:22:05.299Z,99798.81
2022-09-28T09:24:42.140Z,99798.69
2022-09-28T09:27:27.507Z,99792.47
2022-09-28T09:30:04.655Z,99794.78
2022-09-28T09:32:47.291Z,99791.06
2022-09-28T09:35:31.473Z,99796.31
2022-09-28T09:38:46.675Z,99796.50
2022-09-28T09:41:48.364Z,99791.88
2022-09-28T09:44:58.156Z,99811.25
2022-09-28T09:47:59.149Z,99794.78
2022-09-28T09:50:32.007Z,99800.88
2022-09-28T09:53:07.037Z,99789.94
2022-09-28T09:55:40.317Z,99790.91
2022-09-28T09:58:28.458Z,99791.88
2022-09-28T10:01:08.087Z,99790.69
2022-09-28T10:03:56.342Z,99793.03
2022-09-28T10:06:33.025Z,99796.22
2022-09-28T10:09:04.554Z,99786.19
2022-09-28T10:11:36.981Z,99788.56
2022-09-28T10:14:10.963Z,99784.09
2022-09-28T10:16:44.971Z,99788.81
2022-09-28T10:19:25.884Z,99782.22
2022-09-28T10:22:30.763Z,99804.34
2022-09-28T10:25:00.436Z,99795.00
2022-09-28T10:27:31.033Z,99795.50
2022-09-28T10:30:02.753Z,99784.69
2022-09-28T10:32:39.614Z,99766.38
2022-09-28T10:35:27.314Z,99791.25
2022-09-28T10:38:00.036Z,99789.34
2022-09-28T10:41:10.562Z,99801.88
2022-09-28T10:44:06.550Z,99792.72
2022-09-28T10:46:56.874Z,99797.16
2022-09-28T10:49:35.761Z,99801.66
2022-09-28T10:52:02.870Z,99816.25
2022-09-28T10:54:52.380Z,99811.75
2022-09-28T10:57:28.037Z,99811.38
2022-09-28T10:59:59.604Z,99812.78
2022-09-28T11:02:35.440Z,99820.22
2022-09-28T11:05:22.851Z,99825.75
2022-09-28T11:07:52.830Z,99826.09
2022-09-28T11:10:27.995Z,99827.69
2022-09-28T11:12:59.911Z,99821.84
2022-09-28T11:15:31.522Z,99801.66
2022-09-28T11:18:20.511Z,99819.66
2022-09-28T11:20:49.639Z,99823.28
2022-09-28T11:23:20.695Z,99820.84
2022-09-28T11:26:04.987Z,99817.72
2022-09-28T11:28:34.602Z,99820.91
2022-09-28T11:31:09.040Z,99825.09
2022-09-28T11:34:16.331Z,99818.72
2022-09-28T11:37:27.587Z,99815.66
2022-09-28T11:40:06.206Z,99820.22
2022-09-28T11:42:43.792Z,99785.50
2022-09-28T11:45:30.565Z,99813.75
2022-09-28T11:47:59.973Z,99823.91
2022-09-28T11:50:35.215Z,99821.06
2022-09-28T11:53:17.409Z,99834.13
2022-09-28T11:55:50.400Z,99823.84
2022-09-28T11:58:26.379Z,99823.88
2022-09-28T12:00:59.662Z,99834.91
2022-09-28T12:03:42.701Z,99833.78
2022-09-28T12:06:15.679Z,99834.31
2022-09-28T12:08:52.069Z,99828.13
2022-09-28T12:11:42.159Z,99822.94
2022-09-28T12:14:23.415Z,99823.81
2022-09-28T12:17:11.848Z,99843.53
2022-09-28T12:19:44.260Z,99843.50
2022-09-28T12:22:17.655Z,99856.41
2022-09-28T12:24:48.833Z,99852.22
2022-09-28T12:27:21.332Z,99855.13
2022-09-28T12:29:55.076Z,99858.63
2022-09-28T12:32:29.389Z,99845.19
2022-09-28T12:34:56.768Z,99818.09
2022-09-28T12:37:42.098Z,99847.81
2022-09-28T12:40:38.128Z,99841.09
2022-09-28T12:43:33.582Z,99855.69
2022-09-28T12:46:25.201Z,99847.03
2022-09-28T12:52:03.245Z,99846.34
2022-09-28T12:54:43.123Z,99821.50
2022-09-28T12:57:44.906Z,99846.75
2022-09-28T13:00:15.963Z,99847.19
2022-09-28T13:03:08.014Z,99834.28
2022-09-28T13:05:55.934Z,99833.72
2022-09-28T13:08:31.831Z,99805.28
2022-09-28T13:11:10.475Z,99835.28
2022-09-28T13:13:53.172Z,99838.94
2022-09-28T13:16:26.766Z,99844.00
2022-09-28T13:19:02.777Z,99837.41
2022-09-28T13:21:39.212Z,99833.31
2022-09-28T13:24:31.047Z,99831.34
2022-09-28T13:27:04.538Z,99838.09
2022-09-28T13:29:35.101Z,99842.44
2022-09-28T13:32:04.246Z,99840.88
2022-09-28T13:34:35.837Z,99850.00
2022-09-28T13:37:22.153Z,99820.97
2022-09-28T13:39:52.643Z,99848.19
2022-09-28T13:42:52.625Z,99817.63
2022-09-28T13:45:35.264Z,99821.72
2022-09-28T13:48:12.338Z,99839.06
2022-09-28T13:50:54.901Z,99834.69
2022-09-28T13:53:32.840Z,99842.00
2022-09-28T13:56:17.751Z,99833.69
2022-09-28T13:58:49.595Z,99849.53
2022-09-28T14:01:20.542Z,99846.28
2022-09-28T14:03:55.634Z,99845.03
2022-09-28T14:06:26.282Z,99841.34
2022-09-28T14:09:28.004Z,99837.47
2022-09-28T14:11:57.146Z,99845.19
2022-09-28T14:14:46.600Z,99826.72
2022-09-28T14:17:52.087Z,99836.41
2022-09-28T14:20:23.416Z,99841.72
2022-09-28T14:23:22.685Z,99821.84
2022-09-28T14:26:28.159Z,99852.56
2022-09-28T14:29:10.154Z,99861.97
2022-09-28T14:31:41.352Z,99841.91
2022-09-28T14:34:25.525Z,99850.00
2022-09-28T14:37:11.449Z,99846.53
2022-09-28T14:39:57.316Z,99851.28
2022-09-28T14:42:25.805Z,99843.41
2022-09-28T14:45:34.192Z,99852.38
2022-09-28T14:48:21.575Z,99834.59
2022-09-28T14:50:50.131Z,99858.44
2022-09-28T14:53:24.195Z,99855.34
2022-09-28T14:55:55.656Z,99856.47
2022-09-28T14:58:25.126Z,99854.66
2022-09-28T15:00:58.326Z,99857.03
2022-09-28T15:03:27.276Z,99848.66
2022-09-28T15:05:55.749Z,99862.53
2022-09-28T15:08:22.968Z,99844.13
2022-09-28T15:10:50.626Z,99838.53
2022-09-28T15:13:24.138Z,99848.19
2022-09-28T15:15:54.443Z,99863.34
2022-09-28T15:19:02.267Z,99870.38
2022-09-28T15:21:37.697Z,99885.25
2022-09-28T15:24:27.209Z,99884.69
2022-09-28T15:26:54.727Z,99878.47
2022-09-28T15:29:23.209Z,99868.94
2022-09-28T15:31:54.516Z,99878.19
2022-09-28T15:34:48.443Z,99863.31
2022-09-28T15:37:20.179Z,99857.97
2022-09-28T15:39:48.319Z,99889.94
2022-09-28T15:42:16.712Z,99882.91
2022-09-28T15:45:00.732Z,99885.00
2022-09-28T15:47:29.073Z,99879.53
2022-09-28T15:49:59.874Z,99887.94
2022-09-28T15:52:43.234Z,99884.59
2022-09-28T15:55:21.085Z,99867.03
2022-09-28T15:57:48.882Z,99905.50
2022-09-28T16:00:26.142Z,99895.22
2022-09-28T16:03:01.899Z,99883.16
2022-09-28T16:05:38.137Z,99900.84
2022-09-28T16:08:21.381Z,99904.91
2022-09-28T16:11:08.148Z,99911.22
2022-09-28T16:13:36.905Z,99895.22
2022-09-28T16:16:04.024Z,99906.19
2022-09-28T16:18:32.496Z,99907.88
2022-09-28T16:21:25.247Z,99903.66
2022-09-28T16:23:58.359Z,99906.03
2022-09-28T16:26:32.259Z,99910.25
2022-09-28T16:28:59.888Z,99914.84
2022-09-28T16:31:30.212Z,99908.38
2022-09-28T16:33:59.416Z,99906.97
2022-09-28T16:36:30.013Z,99907.53
2022-09-28T16:38:58.172Z,99915.47
2022-09-28T16:41:28.967Z,99899.00
2022-09-28T16:43:59.815Z,99913.28
2022-09-28T16:46:32.094Z,99911.72
2022-09-28T16:49:02.407Z,99910.88
2022-09-28T16:51:29.630Z,99913.22
2022-09-28T16:54:19.093Z,99905.75
2022-09-28T16:56:47.734Z,99912.28
2022-09-28T16:59:14.666Z,99911.25
2022-09-28T17:01:43.855Z,99903.88
2022-09-28T17:04:12.186Z,99913.88
2022-09-28T17:06:39.044Z,99914.88
2022-09-28T17:09:11.682Z,99914.41
2022-09-28T17:11:39.081Z,99919.59
2022-09-28T17:14:06.083Z,99917.72
2022-09-28T17:16:57.657Z,99927.38
2022-09-28T17:19:22.246Z,99927.03
2022-09-28T17:21:49.996Z,99939.34
2022-09-28T17:24:18.550Z,99933.22
2022-09-28T17:26:46.984Z,99905.25
2022-09-28T17:29:15.149Z,99926.94
2022-09-28T17:31:42.712Z,99932.00
2022-09-28T17:34:10.456Z,99906.47
2022-09-28T17:36:38.019Z,99937.31
2022-09-28T17:39:05.540Z,99928.50
2022-09-28T17:41:34.834Z,99940.78
2022-09-28T17:44:03.168Z,99938.78
2022-09-28T17:46:32.309Z,99938.78
2022-09-28T17:49:01.572Z,99943.81
2022-09-28T17:51:30.462Z,99942.88
2022-09-28T17:53:57.543Z,99922.16
2022-09-28T17:56:29.719Z,99922.66
2022-09-28T17:59:03.151Z,99916.84
2022-09-28T18:01:34.317Z,99947.34
2022-09-28T18:04:02.502Z,99949.66
2022-09-28T18:06:29.360Z,99951.13
2022-09-28T18:08:56.130Z,99965.97
2022-09-28T18:11:23.550Z,99937.53
2022-09-28T18:13:50.453Z,99962.22
2022-09-28T18:16:19.599Z,99913.66
2022-09-28T18:18:47.557Z,99965.38
2022-09-28T18:21:15.178Z,99970.84
2022-09-28T18:23:42.104Z,99959.00
2022-09-28T18:26:12.074Z,99974.81
2022-09-28T18:28:39.622Z,99968.88
2022-09-28T18:31:11.076Z,99970.59
2022-09-28T18:33:39.934Z,99971.66
2022-09-28T18:36:07.740Z,99976.47
2022-09-28T18:38:36.081Z,99973.25
2022-09-28T18:41:08.758Z,99974.69
2022-09-28T18:43:36.447Z,99979.41
2022-09-28T18:46:07.797Z,99969.50
2022-09-28T18:48:35.914Z,99976.50
2022-09-28T18:51:08.093Z,99985.69
2022-09-28T18:53:34.822Z,99972.66
2022-09-28T18:56:05.719Z,99976.63
2022-09-28T18:58:34.411Z,99971.78
2022-09-28T19:01:28.487Z,99971.44
2022-09-28T19:03:54.011Z,99980.84
2022-09-28T19:06:22.387Z,99978.44
2022-09-28T19:08:52.436Z,99963.44
2022-09-28T19:11:19.904Z,99975.75
2022-09-28T19:13:46.866Z,99962.38
2022-09-28T19:16:16.761Z,99971.66
2022-09-28T19:18:44.225Z,99974.19
2022-09-28T19:21:13.596Z,99973.59
2022-09-28T19:23:48.092Z,99965.16
2022-09-28T19:26:16.816Z,99967.66
2022-09-28T19:28:43.616Z,99973.09
2022-09-28T19:31:11.618Z,99968.53
2022-09-28T19:33:39.648Z,99971.41
2022-09-28T19:36:08.499Z,99981.44
2022-09-28T19:38:37.616Z,99976.00
2022-09-28T19:41:13.880Z,99979.50
2022-09-28T19:43:43.954Z,99979.38
2022-09-28T19:46:12.761Z,99980.97
2022-09-28T19:48:43.471Z,99979.16
2022-09-28T19:51:10.494Z,99982.03
2022-09-28T19:53:37.373Z,99983.13
2022-09-28T19:56:05.694Z,99985.66
2022-09-28T19:58:35.599Z,99976.81
2022-09-28T20:01:05.164Z,99984.31
2022-09-28T20:03:31.975Z,99974.06
2022-09-28T20:05:59.657Z,99976.34
2022-09-28T20:08:27.031Z,99989.25
2022-09-28T20:10:54.785Z,99992.00
2022-09-28T20:13:22.195Z,99987.81
2022-09-28T20:15:50.417Z,99991.16
2022-09-28T20:18:17.249Z,99989.47
2022-09-28T20:20:44.055Z,99983.22
2022-09-28T20:23:11.105Z,99998.50
2022-09-28T20:25:41.286Z,100000.63
2022-09-28T20:28:08.058Z,99999.16
2022-09-28T20:30:34.899Z,100001.41
2022-09-28T20:33:03.334Z,100003.09
2022-09-28T20:35:33.009Z,100007.75
2022-09-28T20:38:07.940Z,100011.38
2022-09-28T20:40:35.327Z,100004.66
2022-09-28T20:43:02.361Z,100015.69
2022-09-28T20:45:29.291Z,100007.03
2022-09-28T20:47:56.318Z,100008.97
2022-09-28T20:50:24.704Z,100005.75
2022-09-28T20:52:51.463Z,100005.13
2022-09-28T20:55:18.201Z,100010.97
2022-09-28T20:57:46.486Z,100016.13
2022-09-28T21:00:14.042Z,100022.94
2022-09-28T21:02:41.037Z,100016.41
2022-09-28T21:05:08.893Z,100022.66
2022-09-28T21:07:37.047Z,100024.41
2022-09-28T21:10:04.626Z,100026.63
2022-09-28T21:12:31.812Z,100021.78
2022-09-28T21:15:02.280Z,100027.28
2022-09-28T21:17:32.407Z,100029.38
2022-09-28T21:19:59.494Z,100020.03
2022-09-28T21:22:29.053Z,100032.97
2022-09-28T21:24:57.223Z,100032.66
2022-09-28T21:27:23.994Z,100017.75
2022-09-28T21:29:50.747Z,100026.63
2022-09-28T21:32:17.533Z,100025.16
2022-09-28T21:34:44.472Z,100020.13
2022-09-28T21:37:11.273Z,100031.88
2022-09-28T21:39:38.064Z,100027.56
2022-09-28T21:42:06.937Z,99987.72
2022-09-28T21:44:33.689Z,100033.19
2022-09-28T21:47:00.481Z,100029.09
2022-09-28T21:49:27.313Z,100032.97
2022-09-28T21:51:54.101Z,100025.88
2022-09-28T21:54:21.471Z,100025.47
2022-09-28T21:56:48.267Z,100034.78
2022-09-28T21:59:16.932Z,100027.81
2022-09-28T22:01:44.353Z,100031.75
2022-09-28T22:04:11.284Z,100044.53
2022-09-28T22:06:38.028Z,100040.91
2022-09-28T22:09:05.421Z,100049.41
2022-09-28T22:11:32.245Z,100039.56
2022-09-28T22:14:00.238Z,100051.72
2022-09-28T22:16:30.755Z,100065.34
2022-09-28T22:18:58.140Z,100049.34
2022-09-28T22:21:28.283Z,100062.69
2022-09-28T22:23:58.627Z,100056.03
2022-09-28T22:26:26.700Z,100058.97
2022-09-28T22:28:55.343Z,100064.69
2022-09-28T22:31:24.858Z,100058.47
2022-09-28T22:33:53.503Z,100045.97
2022-09-28T22:36:20.445Z,100068.81
2022-09-28T22:38:48.280Z,100057.41
2022-09-28T22:41:16.034Z,100060.47
2022-09-28T22:43:43.373Z,100066.03
2022-09-28T22:46:11.916Z,100066.88
2022-09-28T22:48:39.154Z,100065.19
2022-09-28T22:51:07.428Z,100073.88
2022-09-28T22:53:35.262Z,100078.41
2022-09-28T22:56:05.651Z,100075.53
2022-09-28T22:58:32.655Z,100078.75
2022-09-28T23:01:05.719Z,100078.59
2022-09-28T23:03:32.569Z,100083.66
2022-09-28T23:05:59.297Z,100085.31
2022-09-28T23:08:28.094Z,100071.94
2022-09-28T23:10:54.931Z,100083.91
2022-09-28T23:13:21.740Z,100080.13
2022-09-28T23:15:56.019Z,100082.66
2022-09-28T23:18:23.010Z,100073.03
2022-09-28T23:20:53.595Z,100074.94
2022-09-28T23:23:20.327Z,100074.63
2022-09-28T23:25:48.555Z,100078.13
2022-09-28T23:28:15.376Z,100067.84
2022-09-28T23:30:42.096Z,100078.59
2022-09-28T23:33:12.200Z,100076.50
2022-09-28T23:35:39.286Z,100081.13
2022-09-28T23:38:06.738Z,100078.56
2022-09-28T23:40:33.672Z,100075.31
2022-09-28T23:43:01.870Z,100079.16
2022-09-28T23:45:28.595Z,100079.47
2022-09-28T23:47:56.168Z,100081.44
2022-09-28T23:50:23.777Z,100082.38
2022-09-28T23:52:50.864Z,100081.44
2022-09-28T23:55:17.789Z,100078.06
2022-09-28T23:57:45.136Z,100072.97
